Time,TemperatureF,DewpointF,PressureIn,WindDirection,WindDirectionDegrees,WindSpeedMPH,WindSpeedGustMPH,Humidity,HourlyPrecipIn,Conditions,Clouds,dailyrainin,SoftwareType,DateUTC
2013-01-09 00:03:00,42.6,39.0,29.56,ESE,120,0.0,0.0,87,0.00,,,0.00,VWS V14.00,2013-01-09 05:03:00,
2013-01-09 00:04:00,42.6,39.0,29.56,ESE,120,0.0,0.0,87,0.00,,,0.00,VWS V14.00,2013-01-09 05:04:00,
2013-01-09 00:09:00,42.6,39.0,29.56,ESE,120,0.0,0.0,87,0.00,,,0.00,VWS V14.00,2013-01-09 05:09:00,
2013-01-09 00:14:00,42.6,39.0,29.56,ESE,120,0.0,0.0,87,0.00,,,0.00,VWS V14.00,2013-01-09 05:14:00,
2013-01-09 00:19:00,42.4,38.8,29.56,ESE,120,0.0,0.0,87,0.00,,,0.00,VWS V14.00,2013-01-09 05:19:00,
2013-01-09 00:24:00,42.3,38.7,29.56,ESE,120,0.0,0.0,87,0.00,,,0.00,VWS V14.00,2013-01-09 05:24:00,
2013-01-09 00:29:00,42.1,38.8,29.56,ESE,120,0.0,0.0,88,0.00,,,0.00,VWS V14.00,2013-01-09 05:29:00,
2013-01-09 00:34:00,42.1,38.8,29.56,North,8,0.0,0.0,88,0.00,,,0.00,VWS V14.00,2013-01-09 05:34:00,
2013-01-09 00:40:00,42.1,38.8,29.56,WNW,300,0.0,0.0,88,0.00,,,0.00,VWS V14.00,2013-01-09 05:40:00,
2013-01-09 00:45:00,42.3,39.3,29.56,NW,322,0.0,0.0,89,0.00,,,0.00,VWS V14.00,2013-01-09 05:45:00,
2013-01-09 00:50:00,42.4,39.4,29.56,NW,322,0.0,0.0,89,0.00,,,0.00,VWS V14.00,2013-01-09 05:50:00,
2013-01-09 00:55:00,42.6,39.6,29.56,East,98,0.0,0.0,89,0.00,,,0.00,VWS V14.00,2013-01-09 05:55:00,
2013-01-09 01:00:00,42.8,39.8,29.56,East,98,0.0,0.0,89,0.00,,,0.00,VWS V14.00,2013-01-09 06:00:00,
2013-01-09 01:05:00,42.8,39.8,29.56,East,98,0.0,0.0,89,0.00,,,0.00,VWS V14.00,2013-01-09 06:05:00,
2013-01-09 01:10:00,42.6,39.6,29.56,East,98,0.0,0.0,89,0.00,,,0.00,VWS V14.00,2013-01-09 06:10:00,
2013-01-09 01:15:00,42.8,39.5,29.56,East,98,0.0,0.0,88,0.00,,,0.00,VWS V14.00,2013-01-09 06:15:00,
2013-01-09 01:20:00,43.0,39.7,29.56,East,98,0.0,0.0,88,0.00,,,0.00,VWS V14.00,2013-01-09 06:20:00,
2013-01-09 01:25:00,43.0,40.0,29.56,ESE,120,0.0,0.0,89,0.00,,,0.00,VWS V14.00,2013-01-09 06:25:00,
2013-01-09 01:31:00,43.0,40.0,29.56,ESE,120,0.0,0.0,89,0.00,,,0.00,VWS V14.00,2013-01-09 06:31:00,
2013-01-09 01:36:00,42.6,39.3,29.56,ESE,120,0.0,0.0,88,0.00,,,0.00,VWS V14.00,2013-01-09 06:36:00,
2013-01-09 01:41:00,42.4,39.4,29.56,ESE,120,0.0,0.0,89,0.00,,,0.00,VWS V14.00,2013-01-09 06:41:00,
2013-01-09 01:46:00,42.4,39.4,29.56,East,98,0.0,0.0,89,0.00,,,0.00,VWS V14.00,2013-01-09 06:46:00,
2013-01-09 01:51:00,42.4,39.4,29.56,ESE,120,0.0,0.0,89,0.00,,,0.00,VWS V14.00,2013-01-09 06:51:00,
2013-01-09 01:56:00,42.3,39.3,29.56,ESE,120,0.0,0.0,89,0.00,,,0.00,VWS V14.00,2013-01-09 06:56:00,
2013-01-09 02:01:00,42.3,39.3,29.59,ESE,120,0.0,0.0,89,0.00,,,0.00,VWS V14.00,2013-01-09 07:01:00,
2013-01-09 02:06:00,42.1,39.1,29.59,ESE,120,0.0,0.0,89,0.00,,,0.00,VWS V14.00,2013-01-09 07:06:00,
2013-01-09 02:11:00,41.9,38.9,29.56,ESE,120,0.0,0.0,89,0.00,,,0.00,VWS V14.00,2013-01-09 07:11:00,
2013-01-09 02:16:00,41.7,38.7,29.56,ESE,120,0.0,0.0,89,0.00,,,0.00,VWS V14.00,2013-01-09 07:16:00,
2013-01-09 02:21:00,41.7,38.7,29.56,ESE,120,0.0,0.0,89,0.00,,,0.00,VWS V14.00,2013-01-09 07:21:00,
2013-01-09 02:26:00,42.1,39.1,29.53,ESE,120,0.0,0.0,89,0.00,,,0.00,VWS V14.00,2013-01-09 07:26:00,
2013-01-09 02:31:00,42.1,39.4,29.53,ESE,120,0.0,0.0,90,0.00,,,0.00,VWS V14.00,2013-01-09 07:31:00,
2013-01-09 02:37:00,42.3,39.5,29.53,ESE,120,0.0,0.0,90,0.00,,,0.00,VWS V14.00,2013-01-09 07:37:00,
2013-01-09 02:42:00,42.3,39.5,29.56,ESE,120,0.0,0.0,90,0.00,,,0.00,VWS V14.00,2013-01-09 07:42:00,
2013-01-09 02:47:00,42.3,39.5,29.56,ESE,120,0.0,0.0,90,0.00,,,0.00,VWS V14.00,2013-01-09 07:47:00,
2013-01-09 02:52:00,42.4,39.7,29.56,ESE,120,0.0,0.0,90,0.00,,,0.00,VWS V14.00,2013-01-09 07:52:00,
2013-01-09 02:57:00,42.4,39.7,29.56,ESE,120,0.0,0.0,90,0.00,,,0.00,VWS V14.00,2013-01-09 07:57:00,
2013-01-09 03:02:00,42.4,39.7,29.56,ESE,120,0.0,0.0,90,0.00,,,0.00,VWS V14.00,2013-01-09 08:02:00,
2013-01-09 03:07:00,42.4,39.7,29.56,ESE,120,0.0,0.0,90,0.00,,,0.00,VWS V14.00,2013-01-09 08:07:00,
2013-01-09 03:12:00,42.6,39.9,29.56,ESE,120,0.0,0.0,90,0.00,,,0.00,VWS V14.00,2013-01-09 08:12:00,
2013-01-09 03:17:00,42.4,39.4,29.56,ESE,120,0.0,0.0,89,0.00,,,0.00,VWS V14.00,2013-01-09 08:17:00,
2013-01-09 03:22:00,42.1,39.1,29.56,ESE,120,0.0,0.0,89,0.00,,,0.00,VWS V14.00,2013-01-09 08:22:00,
2013-01-09 03:27:00,41.5,38.5,29.56,ESE,120,0.0,0.0,89,0.00,,,0.00,VWS V14.00,2013-01-09 08:27:00,
2013-01-09 03:32:00,41.4,38.7,29.56,ESE,120,0.0,0.0,90,0.00,,,0.00,VWS V14.00,2013-01-09 08:32:00,
2013-01-09 03:37:00,41.0,38.0,29.56,ESE,120,0.0,0.0,89,0.00,,,0.00,VWS V14.00,2013-01-09 08:37:00,
2013-01-09 03:42:00,40.6,37.9,29.53,ESE,120,0.0,0.0,90,0.00,,,0.00,VWS V14.00,2013-01-09 08:42:00,
2013-01-09 03:47:00,40.3,37.9,29.53,ESE,120,0.0,0.0,91,0.00,,,0.00,VWS V14.00,2013-01-09 08:47:00,
2013-01-09 03:53:00,40.3,37.9,29.53,ESE,120,0.0,0.0,91,0.00,,,0.00,VWS V14.00,2013-01-09 08:53:00,
2013-01-09 03:58:00,39.7,37.3,29.56,ESE,120,0.0,0.0,91,0.00,,,0.00,VWS V14.00,2013-01-09 08:58:00,
2013-01-09 04:03:00,39.7,37.3,29.56,ESE,120,0.0,0.0,91,0.00,,,0.00,VWS V14.00,2013-01-09 09:03:00,
2013-01-09 04:08:00,39.4,37.2,29.56,ESE,120,0.0,0.0,92,0.00,,,0.00,VWS V14.00,2013-01-09 09:08:00,
2013-01-09 04:13:00,39.0,37.2,29.53,ESE,120,0.0,0.0,93,0.00,,,0.00,VWS V14.00,2013-01-09 09:13:00,
2013-01-09 04:18:00,38.8,37.0,29.53,ESE,120,0.0,0.0,93,0.00,,,0.00,VWS V14.00,2013-01-09 09:18:00,
2013-01-09 04:23:00,38.5,36.6,29.53,ESE,120,0.0,0.0,93,0.00,,,0.00,VWS V14.00,2013-01-09 09:23:00,
2013-01-09 04:28:00,38.3,36.5,29.56,ESE,120,0.0,0.0,93,0.00,,,0.00,VWS V14.00,2013-01-09 09:28:00,
2013-01-09 04:33:00,38.1,36.5,29.56,ESE,120,0.0,0.0,94,0.00,,,0.00,VWS V14.00,2013-01-09 09:33:00,
2013-01-09 04:38:00,37.9,36.4,29.56,ESE,120,0.0,0.0,94,0.00,,,0.00,VWS V14.00,2013-01-09 09:38:00,
2013-01-09 04:43:00,37.6,36.0,29.56,ESE,120,0.0,0.0,94,0.00,,,0.00,VWS V14.00,2013-01-09 09:43:00,
2013-01-09 04:48:00,37.6,36.0,29.56,ESE,120,0.0,0.0,94,0.00,,,0.00,VWS V14.00,2013-01-09 09:48:00,
2013-01-09 04:54:00,37.4,35.8,29.56,ESE,120,0.0,0.0,94,0.00,,,0.00,VWS V14.00,2013-01-09 09:54:00,
2013-01-09 04:59:00,37.0,35.5,29.56,ESE,120,0.0,0.0,94,0.00,,,0.00,VWS V14.00,2013-01-09 09:59:00,
2013-01-09 05:04:00,37.0,35.5,29.56,ESE,120,0.0,0.0,94,0.00,,,0.00,VWS V14.00,2013-01-09 10:04:00,
2013-01-09 05:09:00,37.0,35.5,29.56,ESE,120,0.0,0.0,94,0.00,,,0.00,VWS V14.00,2013-01-09 10:09:00,
2013-01-09 05:14:00,36.9,35.6,29.59,ESE,120,0.0,0.0,95,0.00,,,0.00,VWS V14.00,2013-01-09 10:14:00,
2013-01-09 05:19:00,36.7,35.4,29.59,ESE,120,0.0,0.0,95,0.00,,,0.00,VWS V14.00,2013-01-09 10:19:00,
2013-01-09 05:24:00,36.5,35.2,29.59,ESE,120,0.0,0.0,95,0.00,,,0.00,VWS V14.00,2013-01-09 10:24:00,
2013-01-09 05:29:00,36.3,35.0,29.56,ESE,120,0.0,0.0,95,0.00,,,0.00,VWS V14.00,2013-01-09 10:29:00,
2013-01-09 05:34:00,36.1,34.8,29.56,ESE,120,0.0,0.0,95,0.00,,,0.00,VWS V14.00,2013-01-09 10:34:00,
2013-01-09 05:39:00,36.0,34.7,29.56,ESE,120,0.0,0.0,95,0.00,,,0.00,VWS V14.00,2013-01-09 10:39:00,
2013-01-09 05:44:00,35.8,34.5,29.56,ESE,120,0.0,0.0,95,0.00,,,0.00,VWS V14.00,2013-01-09 10:44:00,
2013-01-09 05:49:00,35.8,34.5,29.56,ESE,120,0.0,0.0,95,0.00,,,0.00,VWS V14.00,2013-01-09 10:49:00,
2013-01-09 05:55:00,35.8,34.5,29.56,ESE,120,0.0,0.0,95,0.00,,,0.00,VWS V14.00,2013-01-09 10:55:00,
2013-01-09 06:06:00,35.4,34.4,29.56,ESE,120,0.0,0.0,96,0.00,,,0.00,VWS V14.00,2013-01-09 11:06:00,
2013-01-09 06:11:00,35.2,34.2,29.53,ESE,120,0.0,0.0,96,0.00,,,0.00,VWS V14.00,2013-01-09 11:11:00,
2013-01-09 06:16:00,35.4,34.4,29.53,ESE,120,0.0,0.0,96,0.00,,,0.00,VWS V14.00,2013-01-09 11:16:00,
2013-01-09 06:21:00,35.1,34.0,29.53,ESE,120,0.0,0.0,96,0.00,,,0.00,VWS V14.00,2013-01-09 11:21:00,
2013-01-09 06:26:00,35.1,34.0,29.56,ESE,120,0.0,0.0,96,0.00,,,0.00,VWS V14.00,2013-01-09 11:26:00,
2013-01-09 06:32:00,34.9,33.9,29.56,ESE,120,0.0,0.0,96,0.00,,,0.00,VWS V14.00,2013-01-09 11:32:00,
2013-01-09 06:37:00,34.7,33.7,29.56,ESE,120,0.0,0.0,96,0.00,,,0.00,VWS V14.00,2013-01-09 11:37:00,
2013-01-09 06:42:00,34.7,33.7,29.56,ESE,120,0.0,0.0,96,0.00,,,0.00,VWS V14.00,2013-01-09 11:42:00,
2013-01-09 06:47:00,34.5,33.5,29.56,ESE,120,0.0,0.0,96,0.00,,,0.00,VWS V14.00,2013-01-09 11:47:00,
2013-01-09 06:52:00,34.5,33.8,29.56,ESE,120,0.0,0.0,97,0.00,,,0.00,VWS V14.00,2013-01-09 11:52:00,
2013-01-09 06:57:00,34.5,33.8,29.53,ESE,120,0.0,0.0,97,0.00,,,0.00,VWS V14.00,2013-01-09 11:57:00,
2013-01-09 07:02:00,34.5,33.8,29.53,ESE,120,0.0,0.0,97,0.00,,,0.00,VWS V14.00,2013-01-09 12:02:00,
2013-01-09 07:07:00,34.3,33.6,29.53,ESE,120,0.0,0.0,97,0.00,,,0.00,VWS V14.00,2013-01-09 12:07:00,
2013-01-09 07:12:00,34.3,33.6,29.56,ESE,120,0.0,0.0,97,0.00,,,0.00,VWS V14.00,2013-01-09 12:12:00,
2013-01-09 07:17:00,34.2,33.4,29.56,ESE,120,0.0,0.0,97,0.00,,,0.00,VWS V14.00,2013-01-09 12:17:00,
2013-01-09 07:22:00,34.2,33.4,29.56,ESE,120,0.0,0.0,97,0.00,,,0.00,VWS V14.00,2013-01-09 12:22:00,
2013-01-09 07:27:00,34.2,33.4,29.59,ESE,120,0.0,0.0,97,0.00,,,0.00,VWS V14.00,2013-01-09 12:27:00,
2013-01-09 07:32:00,34.2,33.4,29.59,ESE,120,0.0,0.0,97,0.00,,,0.00,VWS V14.00,2013-01-09 12:32:00,
2013-01-09 07:38:00,34.0,33.2,29.59,ESE,120,0.0,0.0,97,0.00,,,0.00,VWS V14.00,2013-01-09 12:38:00,
2013-01-09 07:43:00,34.2,33.4,29.56,ESE,120,0.0,0.0,97,0.00,,,0.00,VWS V14.00,2013-01-09 12:43:00,
2013-01-09 07:48:00,34.2,33.4,29.56,ESE,120,0.0,0.0,97,0.00,,,0.00,VWS V14.00,2013-01-09 12:48:00,
2013-01-09 07:53:00,34.2,33.4,29.56,ESE,120,0.0,0.0,97,0.00,,,0.00,VWS V14.00,2013-01-09 12:53:00,
2013-01-09 07:58:00,34.3,33.6,29.59,ESE,120,0.0,0.0,97,0.00,,,0.00,VWS V14.00,2013-01-09 12:58:00,
2013-01-09 08:03:00,34.5,33.8,29.59,ESE,120,0.0,0.0,97,0.00,,,0.00,VWS V14.00,2013-01-09 13:03:00,
2013-01-09 08:08:00,34.5,34.0,29.59,ESE,120,0.0,0.0,98,0.00,,,0.00,VWS V14.00,2013-01-09 13:08:00,
2013-01-09 08:13:00,34.9,34.1,29.59,ESE,120,0.0,0.0,97,0.00,,,0.00,VWS V14.00,2013-01-09 13:13:00,
2013-01-09 08:18:00,35.4,34.9,29.59,ESE,120,0.0,0.0,98,0.00,,,0.00,VWS V14.00,2013-01-09 13:18:00,
2013-01-09 08:23:00,36.0,35.5,29.59,ESE,120,0.0,0.0,98,0.00,,,0.00,VWS V14.00,2013-01-09 13:23:00,
2013-01-09 08:28:00,36.9,36.3,29.59,ESE,120,0.0,0.0,98,0.00,,,0.00,VWS V14.00,2013-01-09 13:28:00,
2013-01-09 08:33:00,37.4,36.6,29.59,ESE,120,0.0,0.0,97,0.00,,,0.00,VWS V14.00,2013-01-09 13:33:00,
2013-01-09 08:38:00,37.9,37.4,29.59,ESE,120,0.0,0.0,98,0.00,,,0.00,VWS V14.00,2013-01-09 13:38:00,
2013-01-09 08:44:00,38.5,38.0,29.59,ESE,120,0.0,0.0,98,0.00,,,0.00,VWS V14.00,2013-01-09 13:44:00,
2013-01-09 08:49:00,38.8,38.3,29.59,ESE,120,0.0,0.0,98,0.00,,,0.00,VWS V14.00,2013-01-09 13:49:00,
2013-01-09 08:54:00,39.4,38.9,29.59,ESE,120,0.0,0.0,98,0.00,,,0.00,VWS V14.00,2013-01-09 13:54:00,
2013-01-09 08:59:00,39.9,39.4,29.62,ESE,120,0.0,0.0,98,0.00,,,0.00,VWS V14.00,2013-01-09 13:59:00,
2013-01-09 09:04:00,40.3,39.8,29.62,ESE,120,0.0,0.0,98,0.00,,,0.00,VWS V14.00,2013-01-09 14:04:00,
2013-01-09 09:09:00,40.6,40.1,29.62,ESE,120,0.0,0.0,98,0.00,,,0.00,VWS V14.00,2013-01-09 14:09:00,
2013-01-09 09:14:00,41.0,40.2,29.62,South,188,0.0,0.0,97,0.00,,,0.00,VWS V14.00,2013-01-09 14:14:00,
2013-01-09 09:19:00,41.4,40.6,29.62,NNW,345,0.0,0.0,97,0.00,,,0.00,VWS V14.00,2013-01-09 14:19:00,
2013-01-09 09:24:00,41.9,41.1,29.62,NNW,345,0.0,0.0,97,0.00,,,0.00,VWS V14.00,2013-01-09 14:24:00,
2013-01-09 09:29:00,42.6,41.8,29.59,NNE,30,0.0,0.0,97,0.00,,,0.00,VWS V14.00,2013-01-09 14:29:00,
2013-01-09 09:34:00,43.3,42.3,29.59,North,8,0.0,0.0,96,0.00,,,0.00,VWS V14.00,2013-01-09 14:34:00,
2013-01-09 09:39:00,44.4,43.3,29.59,ESE,120,0.0,0.0,96,0.00,,,0.00,VWS V14.00,2013-01-09 14:39:00,
2013-01-09 09:44:00,45.1,44.1,29.62,South,188,0.0,0.0,96,0.00,,,0.00,VWS V14.00,2013-01-09 14:44:00,
2013-01-09 09:50:00,45.7,44.3,29.62,SE,142,0.0,0.0,95,0.00,,,0.00,VWS V14.00,2013-01-09 14:50:00,
2013-01-09 09:55:00,46.6,45.0,29.62,SE,142,0.0,0.0,94,0.00,,,0.00,VWS V14.00,2013-01-09 14:55:00,
2013-01-09 10:00:00,47.5,45.6,29.62,South,188,0.0,0.0,93,0.00,,,0.00,VWS V14.00,2013-01-09 15:00:00,
2013-01-09 10:05:00,48.7,46.2,29.62,South,188,0.0,0.0,91,0.00,,,0.00,VWS V14.00,2013-01-09 15:05:00,
2013-01-09 10:10:00,50.0,47.2,29.62,WSW,255,0.0,0.0,90,0.00,,,0.00,VWS V14.00,2013-01-09 15:10:00,
2013-01-09 10:15:00,51.6,48.2,29.62,WNW,300,0.0,0.0,88,0.00,,,0.00,VWS V14.00,2013-01-09 15:15:00,
2013-01-09 10:20:00,52.7,48.0,29.62,WNW,300,0.0,0.0,84,0.00,,,0.00,VWS V14.00,2013-01-09 15:20:00,
2013-01-09 10:25:00,53.1,46.7,29.62,SW,232,0.0,0.0,79,0.00,,,0.00,VWS V14.00,2013-01-09 15:25:00,
2013-01-09 10:30:00,53.2,46.9,29.62,SE,142,0.0,0.0,79,0.00,,,0.00,VWS V14.00,2013-01-09 15:30:00,
2013-01-09 10:35:00,54.1,47.1,29.62,West,278,0.0,0.0,77,0.00,,,0.00,VWS V14.00,2013-01-09 15:35:00,
2013-01-09 10:40:00,55.2,47.1,29.62,SW,232,0.0,0.0,74,0.00,,,0.00,VWS V14.00,2013-01-09 15:40:00,
2013-01-09 10:45:00,55.8,46.1,29.62,WSW,255,0.0,0.0,70,0.00,,,0.00,VWS V14.00,2013-01-09 15:45:00,
2013-01-09 10:51:00,56.1,46.5,29.62,NW,322,2.5,2.5,70,0.00,,,0.00,VWS V14.00,2013-01-09 15:51:00,
2013-01-09 10:56:00,56.8,47.5,29.62,SE,142,1.3,2.9,71,0.00,,,0.00,VWS V14.00,2013-01-09 15:56:00,
2013-01-09 11:01:00,57.0,46.6,29.59,SSE,165,1.1,2.9,68,0.00,,,0.00,VWS V14.00,2013-01-09 16:01:00,
2013-01-09 11:06:00,58.5,47.6,29.59,South,188,2.9,2.9,67,0.00,,,0.00,VWS V14.00,2013-01-09 16:06:00,
2013-01-09 11:11:00,59.7,49.2,29.59,SSE,165,0.9,2.2,68,0.00,,,0.00,VWS V14.00,2013-01-09 16:11:00,
2013-01-09 11:16:00,60.3,48.5,29.59,SSW,210,2.7,3.1,65,0.00,,,0.00,VWS V14.00,2013-01-09 16:16:00,
2013-01-09 11:21:00,60.8,48.6,29.59,SE,142,1.1,3.4,64,0.00,,,0.00,VWS V14.00,2013-01-09 16:21:00,
2013-01-09 11:26:00,60.6,47.1,29.59,SW,232,2.7,4.3,61,0.00,,,0.00,VWS V14.00,2013-01-09 16:26:00,
2013-01-09 11:32:00,60.6,47.5,29.59,South,188,2.7,4.7,62,0.00,,,0.00,VWS V14.00,2013-01-09 16:32:00,
2013-01-09 11:37:00,61.3,47.8,29.59,SSE,165,1.1,3.8,61,0.00,,,0.00,VWS V14.00,2013-01-09 16:37:00,
2013-01-09 11:42:00,61.3,47.3,29.56,ESE,120,2.7,4.7,60,0.00,,,0.00,VWS V14.00,2013-01-09 16:42:00,
2013-01-09 11:47:00,61.7,48.1,29.56,East,98,3.8,4.0,61,0.00,,,0.00,VWS V14.00,2013-01-09 16:47:00,
2013-01-09 11:52:00,61.9,48.7,29.56,ESE,120,4.9,5.4,62,0.00,,,0.00,VWS V14.00,2013-01-09 16:52:00,
2013-01-09 11:57:00,62.6,48.5,29.56,SE,142,4.3,4.9,60,0.00,,,0.00,VWS V14.00,2013-01-09 16:57:00,
2013-01-09 12:03:00,62.6,48.5,29.56,SE,142,2.2,2.9,60,0.00,,,0.00,VWS V14.00,2013-01-09 17:03:00,
2013-01-09 12:08:00,62.6,48.5,29.56,SE,142,2.5,3.1,60,0.00,,,0.00,VWS V14.00,2013-01-09 17:08:00,
2013-01-09 12:13:00,62.8,49.2,29.56,SW,232,1.3,5.6,61,0.00,,,0.00,VWS V14.00,2013-01-09 17:13:00,
2013-01-09 12:18:00,63.7,50.0,29.56,SE,142,2.0,2.9,61,0.00,,,0.00,VWS V14.00,2013-01-09 17:18:00,
2013-01-09 12:23:00,64.2,50.1,29.56,SSW,210,3.1,3.1,60,0.00,,,0.00,VWS V14.00,2013-01-09 17:23:00,
2013-01-09 12:28:00,64.8,50.1,29.56,ENE,75,4.0,4.9,59,0.00,,,0.00,VWS V14.00,2013-01-09 17:28:00,
2013-01-09 12:34:00,65.5,50.3,29.56,SE,142,4.0,4.0,58,0.00,,,0.00,VWS V14.00,2013-01-09 17:34:00,
2013-01-09 12:39:00,66.2,51.0,29.56,SE,142,0.0,3.8,58,0.00,,,0.00,VWS V14.00,2013-01-09 17:39:00,
2013-01-09 12:44:00,65.1,49.0,29.56,South,188,3.8,3.8,56,0.00,,,0.00,VWS V14.00,2013-01-09 17:44:00,
2013-01-09 12:49:00,64.6,49.0,29.56,WSW,255,2.5,6.5,57,0.00,,,0.00,VWS V14.00,2013-01-09 17:49:00,
2013-01-09 12:54:00,65.3,49.7,29.56,SSE,165,2.9,4.9,57,0.00,,,0.00,VWS V14.00,2013-01-09 17:54:00,
2013-01-09 12:59:00,65.5,49.9,29.53,South,188,2.7,4.3,57,0.00,,,0.00,VWS V14.00,2013-01-09 17:59:00,
2013-01-09 13:04:00,65.1,50.0,29.53,East,98,0.0,2.7,58,0.00,,,0.00,VWS V14.00,2013-01-09 18:04:00,
2013-01-09 13:09:00,64.9,49.4,29.53,South,188,2.5,5.4,57,0.00,,,0.00,VWS V14.00,2013-01-09 18:09:00,
2013-01-09 13:14:00,64.8,49.2,29.53,SW,232,5.6,5.6,57,0.00,,,0.00,VWS V14.00,2013-01-09 18:14:00,
2013-01-09 13:19:00,64.4,48.8,29.53,SW,232,2.9,5.6,57,0.00,,,0.00,VWS V14.00,2013-01-09 18:19:00,
2013-01-09 13:24:00,64.2,49.6,29.53,South,188,2.5,3.4,59,0.00,,,0.00,VWS V14.00,2013-01-09 18:24:00,
2013-01-09 13:29:00,64.0,49.9,29.53,SE,142,1.3,2.7,60,0.00,,,0.00,VWS V14.00,2013-01-09 18:29:00,
2013-01-09 13:35:00,64.0,49.9,29.53,South,188,1.6,4.3,60,0.00,,,0.00,VWS V14.00,2013-01-09 18:35:00,
2013-01-09 13:40:00,64.0,49.9,29.53,SE,142,2.9,3.4,60,0.00,,,0.00,VWS V14.00,2013-01-09 18:40:00,
2013-01-09 13:41:00,63.9,49.7,29.53,West,278,1.6,4.0,60,0.00,,,0.00,VWS V14.00,2013-01-09 18:41:00,
2013-01-09 13:42:00,63.9,49.7,29.53,ESE,120,2.5,4.0,60,0.00,,,0.00,VWS V14.00,2013-01-09 18:42:00,
2013-01-09 13:44:00,63.9,50.2,29.53,SW,232,2.5,2.7,61,0.00,,,0.00,VWS V14.00,2013-01-09 18:44:00,
2013-01-09 13:45:00,63.9,50.2,29.53,SSW,210,1.1,2.9,61,0.00,,,0.00,VWS V14.00,2013-01-09 18:45:00,
2013-01-09 13:48:00,63.7,50.0,29.53,SW,232,0.0,2.5,61,0.00,,,0.00,VWS V14.00,2013-01-09 18:48:00,
2013-01-09 13:49:00,63.7,50.4,29.53,WSW,255,3.1,3.1,62,0.00,,,0.00,VWS V14.00,2013-01-09 18:49:00,
2013-01-09 13:54:00,63.5,50.3,29.53,SSE,165,2.0,3.6,62,0.00,,,0.00,VWS V14.00,2013-01-09 18:54:00,
2013-01-09 13:59:00,63.7,50.4,29.53,West,278,2.0,5.4,62,0.00,,,0.00,VWS V14.00,2013-01-09 18:59:00,
2013-01-09 14:04:00,63.9,50.6,29.53,SSE,165,2.0,3.4,62,0.00,,,0.00,VWS V14.00,2013-01-09 19:04:00,
2013-01-09 14:09:00,63.9,50.6,29.53,SW,232,2.5,3.4,62,0.00,,,0.00,VWS V14.00,2013-01-09 19:09:00,
2013-01-09 14:14:00,63.9,50.6,29.53,SW,232,2.9,3.1,62,0.00,,,0.00,VWS V14.00,2013-01-09 19:14:00,
2013-01-09 14:19:00,63.7,50.4,29.53,SE,142,2.2,3.4,62,0.00,,,0.00,VWS V14.00,2013-01-09 19:19:00,
2013-01-09 14:24:00,63.7,50.4,29.53,WSW,255,1.1,2.7,62,0.00,,,0.00,VWS V14.00,2013-01-09 19:24:00,
2013-01-09 14:29:00,63.9,51.0,29.53,SSW,210,0.0,2.2,63,0.00,,,0.00,VWS V14.00,2013-01-09 19:29:00,
2013-01-09 14:34:00,63.9,50.6,29.53,SW,232,1.6,2.5,62,0.00,,,0.00,VWS V14.00,2013-01-09 19:34:00,
2013-01-09 14:39:00,63.9,51.0,29.53,SW,232,2.2,2.7,63,0.00,,,0.00,VWS V14.00,2013-01-09 19:39:00,
2013-01-09 14:44:00,63.5,50.3,29.53,South,188,1.3,3.6,62,0.00,,,0.00,VWS V14.00,2013-01-09 19:44:00,
2013-01-09 14:49:00,63.5,50.7,29.53,South,188,2.5,2.5,63,0.00,,,0.00,VWS V14.00,2013-01-09 19:49:00,
2013-01-09 14:54:00,63.1,50.3,29.53,South,188,2.7,4.3,63,0.00,,,0.00,VWS V14.00,2013-01-09 19:54:00,
2013-01-09 15:00:00,63.0,50.2,29.53,SW,232,2.7,3.6,63,0.00,,,0.00,VWS V14.00,2013-01-09 20:00:00,
2013-01-09 15:04:00,62.8,50.4,29.53,WSW,255,0.0,2.0,64,0.00,,,0.00,VWS V14.00,2013-01-09 20:04:00,
2013-01-09 15:10:00,62.6,50.3,29.53,SE,142,1.1,4.3,64,0.00,,,0.00,VWS V14.00,2013-01-09 20:10:00,
2013-01-09 15:15:00,62.4,50.1,29.56,SSW,210,1.6,2.2,64,0.00,,,0.00,VWS V14.00,2013-01-09 20:15:00,
2013-01-09 15:20:00,62.6,50.3,29.56,SE,142,0.0,1.3,64,0.00,,,0.00,VWS V14.00,2013-01-09 20:20:00,
2013-01-09 15:25:00,62.6,50.3,29.56,SW,232,1.6,2.0,64,0.00,,,0.00,VWS V14.00,2013-01-09 20:25:00,
2013-01-09 15:30:00,62.4,50.5,29.56,SW,232,1.1,1.1,65,0.00,,,0.00,VWS V14.00,2013-01-09 20:30:00,
2013-01-09 15:35:00,62.1,50.2,29.56,SW,232,0.0,1.6,65,0.00,,,0.00,VWS V14.00,2013-01-09 20:35:00,
2013-01-09 15:40:00,62.1,50.2,29.56,South,188,1.1,2.9,65,0.00,,,0.00,VWS V14.00,2013-01-09 20:40:00,
2013-01-09 15:45:00,61.9,50.4,29.56,SW,232,1.3,2.7,66,0.00,,,0.00,VWS V14.00,2013-01-09 20:45:00,
2013-01-09 15:50:00,61.7,50.2,29.56,West,278,0.9,1.3,66,0.00,,,0.00,VWS V14.00,2013-01-09 20:50:00,
2013-01-09 15:55:00,61.7,50.2,29.56,West,278,2.7,2.7,66,0.00,,,0.00,VWS V14.00,2013-01-09 20:55:00,
2013-01-09 16:00:00,61.7,50.6,29.56,SW,232,2.0,2.9,67,0.00,,,0.00,VWS V14.00,2013-01-09 21:00:00,
2013-01-09 16:05:00,61.5,50.9,29.56,SSW,210,2.0,3.4,68,0.00,,,0.00,VWS V14.00,2013-01-09 21:05:00,
2013-01-09 16:10:00,61.7,51.0,29.56,SW,232,0.0,3.1,68,0.00,,,0.00,VWS V14.00,2013-01-09 21:10:00,
2013-01-09 16:16:00,61.7,51.0,29.56,WSW,255,0.9,2.9,68,0.00,,,0.00,VWS V14.00,2013-01-09 21:16:00,
2013-01-09 16:21:00,61.7,51.0,29.56,East,98,0.0,2.5,68,0.00,,,0.00,VWS V14.00,2013-01-09 21:21:00,
2013-01-09 16:26:00,61.5,50.9,29.56,East,98,0.0,1.1,68,0.00,,,0.00,VWS V14.00,2013-01-09 21:26:00,
2013-01-09 16:31:00,61.3,51.1,29.56,East,98,1.1,1.6,69,0.00,,,0.00,VWS V14.00,2013-01-09 21:31:00,
2013-01-09 16:36:00,61.3,51.1,29.56,WSW,255,0.0,1.6,69,0.00,,,0.00,VWS V14.00,2013-01-09 21:36:00,
2013-01-09 16:41:00,61.0,50.8,29.56,SSW,210,0.0,1.1,69,0.00,,,0.00,VWS V14.00,2013-01-09 21:41:00,
2013-01-09 16:46:00,60.8,50.6,29.56,SE,142,1.6,2.5,69,0.00,,,0.00,VWS V14.00,2013-01-09 21:46:00,
2013-01-09 16:51:00,60.6,50.8,29.56,WNW,300,2.2,2.2,70,0.00,,,0.00,VWS V14.00,2013-01-09 21:51:00,
2013-01-09 16:56:00,60.4,50.6,29.56,West,278,0.0,1.1,70,0.00,,,0.00,VWS V14.00,2013-01-09 21:56:00,
2013-01-09 17:01:00,60.1,50.3,29.56,SW,232,0.0,0.0,70,0.00,,,0.00,VWS V14.00,2013-01-09 22:01:00,
2013-01-09 17:06:00,59.9,50.1,29.56,SW,232,0.0,0.0,70,0.00,,,0.00,VWS V14.00,2013-01-09 22:06:00,
2013-01-09 17:11:00,59.7,49.9,29.56,NW,322,0.0,0.0,70,0.00,,,0.00,VWS V14.00,2013-01-09 22:11:00,
2013-01-09 17:16:00,59.4,50.0,29.56,NW,322,0.0,0.0,71,0.00,,,0.00,VWS V14.00,2013-01-09 22:16:00,
2013-01-09 17:22:00,59.0,49.6,29.56,NW,322,0.0,0.0,71,0.00,,,0.00,VWS V14.00,2013-01-09 22:22:00,
2013-01-09 17:27:00,58.6,49.7,29.56,SE,142,0.0,0.0,72,0.00,,,0.00,VWS V14.00,2013-01-09 22:27:00,
2013-01-09 17:32:00,58.5,49.5,29.56,SE,142,0.0,0.0,72,0.00,,,0.00,VWS V14.00,2013-01-09 22:32:00,
2013-01-09 17:37:00,58.1,49.5,29.56,SE,142,0.0,0.0,73,0.00,,,0.00,VWS V14.00,2013-01-09 22:37:00,
2013-01-09 17:42:00,58.1,49.5,29.53,SE,142,0.0,1.3,73,0.00,,,0.00,VWS V14.00,2013-01-09 22:42:00,
2013-01-09 17:47:00,57.9,49.7,29.53,SE,142,0.0,0.0,74,0.00,,,0.00,VWS V14.00,2013-01-09 22:47:00,
2013-01-09 17:52:00,57.6,49.3,29.53,SE,142,0.0,0.0,74,0.00,,,0.00,VWS V14.00,2013-01-09 22:52:00,
2013-01-09 17:57:00,57.0,48.8,29.53,SE,142,0.0,0.0,74,0.00,,,0.00,VWS V14.00,2013-01-09 22:57:00,
2013-01-09 18:03:00,56.7,48.8,29.53,SE,142,0.0,0.0,75,0.00,,,0.00,VWS V14.00,2013-01-09 23:03:00,
2013-01-09 18:08:00,56.3,48.8,29.53,NNW,345,0.0,0.0,76,0.00,,,0.00,VWS V14.00,2013-01-09 23:08:00,
2013-01-09 18:13:00,55.9,48.8,29.56,NNW,345,0.0,0.0,77,0.00,,,0.00,VWS V14.00,2013-01-09 23:13:00,
2013-01-09 18:18:00,55.8,48.7,29.56,NNW,345,0.0,0.0,77,0.00,,,0.00,VWS V14.00,2013-01-09 23:18:00,
2013-01-09 18:23:00,55.4,48.3,29.56,East,98,0.0,0.0,77,0.00,,,0.00,VWS V14.00,2013-01-09 23:23:00,
2013-01-09 18:28:00,55.4,48.7,29.56,East,98,0.0,0.0,78,0.00,,,0.00,VWS V14.00,2013-01-09 23:28:00,
2013-01-09 18:34:00,55.0,48.7,29.56,East,98,0.0,0.0,79,0.00,,,0.00,VWS V14.00,2013-01-09 23:34:00,
2013-01-09 18:39:00,54.9,48.5,29.56,East,98,0.0,0.0,79,0.00,,,0.00,VWS V14.00,2013-01-09 23:39:00,
2013-01-09 18:44:00,54.7,48.6,29.56,East,98,0.0,0.0,80,0.00,,,0.00,VWS V14.00,2013-01-09 23:44:00,
2013-01-09 18:49:00,54.5,48.5,29.56,East,98,0.0,0.0,80,0.00,,,0.00,VWS V14.00,2013-01-09 23:49:00,
2013-01-09 18:54:00,54.3,48.3,29.56,East,98,0.0,0.0,80,0.00,,,0.00,VWS V14.00,2013-01-09 23:54:00,
2013-01-09 18:59:00,54.1,48.5,29.56,East,98,0.0,0.0,81,0.00,,,0.00,VWS V14.00,2013-01-09 23:59:00,
2013-01-09 19:04:00,54.0,48.3,29.56,East,98,0.0,0.0,81,0.00,,,0.00,VWS V14.00,2013-01-10 00:04:00,
2013-01-09 19:09:00,53.8,48.1,29.56,East,98,0.0,0.0,81,0.00,,,0.00,VWS V14.00,2013-01-10 00:09:00,
2013-01-09 19:14:00,54.0,48.6,29.56,East,98,0.0,0.0,82,0.00,,,0.00,VWS V14.00,2013-01-10 00:14:00,
2013-01-09 19:19:00,54.0,48.6,29.56,East,98,0.0,0.0,82,0.00,,,0.00,VWS V14.00,2013-01-10 00:19:00,
2013-01-09 19:24:00,54.0,48.9,29.56,East,98,0.0,0.0,83,0.00,,,0.00,VWS V14.00,2013-01-10 00:24:00,
2013-01-09 19:29:00,53.6,48.6,29.56,East,98,0.0,0.0,83,0.00,,,0.00,VWS V14.00,2013-01-10 00:29:00,
2013-01-09 19:34:00,53.4,48.7,29.56,East,98,0.0,0.0,84,0.00,,,0.00,VWS V14.00,2013-01-10 00:34:00,
2013-01-09 19:39:00,53.1,48.0,29.56,East,98,0.0,0.0,83,0.00,,,0.00,VWS V14.00,2013-01-10 00:39:00,
2013-01-09 19:45:00,52.9,48.2,29.56,East,98,0.0,0.0,84,0.00,,,0.00,VWS V14.00,2013-01-10 00:45:00,
2013-01-09 19:50:00,52.7,48.0,29.56,East,98,0.0,0.0,84,0.00,,,0.00,VWS V14.00,2013-01-10 00:50:00,
2013-01-09 19:55:00,52.5,47.8,29.56,East,98,0.0,0.0,84,0.00,,,0.00,VWS V14.00,2013-01-10 00:55:00,
2013-01-09 20:00:00,52.0,47.3,29.56,East,98,0.0,0.0,84,0.00,,,0.00,VWS V14.00,2013-01-10 01:00:00,
2013-01-09 20:05:00,51.8,47.4,29.56,East,98,0.0,0.0,85,0.00,,,0.00,VWS V14.00,2013-01-10 01:05:00,
2013-01-09 20:10:00,51.6,47.6,29.56,East,98,0.0,0.0,86,0.00,,,0.00,VWS V14.00,2013-01-10 01:10:00,
2013-01-09 20:15:00,51.4,47.4,29.56,East,98,0.0,0.0,86,0.00,,,0.00,VWS V14.00,2013-01-10 01:15:00,
2013-01-09 20:20:00,51.3,47.2,29.56,East,98,0.0,0.0,86,0.00,,,0.00,VWS V14.00,2013-01-10 01:20:00,
2013-01-09 20:25:00,51.1,47.0,29.56,East,98,0.0,0.0,86,0.00,,,0.00,VWS V14.00,2013-01-10 01:25:00,
2013-01-09 20:30:00,50.9,46.9,29.56,East,98,0.0,0.0,86,0.00,,,0.00,VWS V14.00,2013-01-10 01:30:00,
2013-01-09 20:35:00,50.7,47.0,29.56,East,98,0.0,0.0,87,0.00,,,0.00,VWS V14.00,2013-01-10 01:35:00,
2013-01-09 20:40:00,50.4,46.6,29.56,East,98,0.0,0.0,87,0.00,,,0.00,VWS V14.00,2013-01-10 01:40:00,
2013-01-09 20:46:00,50.0,46.3,29.56,East,98,0.0,0.0,87,0.00,,,0.00,VWS V14.00,2013-01-10 01:46:00,
2013-01-09 20:51:00,49.8,46.7,29.56,East,98,0.0,0.0,89,0.00,,,0.00,VWS V14.00,2013-01-10 01:51:00,
2013-01-09 20:56:00,49.6,46.5,29.56,East,98,0.0,0.0,89,0.00,,,0.00,VWS V14.00,2013-01-10 01:56:00,
2013-01-09 21:01:00,49.5,46.7,29.59,East,98,0.0,0.0,90,0.00,,,0.00,VWS V14.00,2013-01-10 02:01:00,
2013-01-09 21:06:00,49.1,46.3,29.59,East,98,0.0,0.0,90,0.00,,,0.00,VWS V14.00,2013-01-10 02:06:00,
2013-01-09 21:11:00,48.7,45.9,29.59,East,98,0.0,0.0,90,0.00,,,0.00,VWS V14.00,2013-01-10 02:11:00,
2013-01-09 21:16:00,48.6,45.8,29.59,East,98,0.0,0.0,90,0.00,,,0.00,VWS V14.00,2013-01-10 02:16:00,
2013-01-09 21:21:00,48.4,45.6,29.59,East,98,0.0,0.0,90,0.00,,,0.00,VWS V14.00,2013-01-10 02:21:00,
2013-01-09 21:26:00,48.6,46.1,29.59,East,98,0.0,0.0,91,0.00,,,0.00,VWS V14.00,2013-01-10 02:26:00,
2013-01-09 21:31:00,48.2,45.7,29.59,East,98,0.0,0.0,91,0.00,,,0.00,VWS V14.00,2013-01-10 02:31:00,
2013-01-09 21:36:00,47.8,45.6,29.59,East,98,0.0,0.0,92,0.00,,,0.00,VWS V14.00,2013-01-10 02:36:00,
2013-01-09 21:41:00,47.7,45.5,29.59,East,98,0.0,0.0,92,0.00,,,0.00,VWS V14.00,2013-01-10 02:41:00,
2013-01-09 21:47:00,47.5,45.3,29.59,East,98,0.0,0.0,92,0.00,,,0.00,VWS V14.00,2013-01-10 02:47:00,
2013-01-09 21:52:00,47.5,45.3,29.59,East,98,0.0,0.0,92,0.00,,,0.00,VWS V14.00,2013-01-10 02:52:00,
2013-01-09 21:57:00,47.3,45.4,29.59,East,98,0.0,0.0,93,0.00,,,0.00,VWS V14.00,2013-01-10 02:57:00,
2013-01-09 22:02:00,47.1,45.2,29.59,East,98,0.0,0.0,93,0.00,,,0.00,VWS V14.00,2013-01-10 03:02:00,
2013-01-09 22:07:00,46.9,45.0,29.59,East,98,0.0,0.0,93,0.00,,,0.00,VWS V14.00,2013-01-10 03:07:00,
2013-01-09 22:12:00,46.8,44.8,29.59,East,98,0.0,0.0,93,0.00,,,0.00,VWS V14.00,2013-01-10 03:12:00,
2013-01-09 22:17:00,46.8,44.8,29.59,East,98,0.0,0.0,93,0.00,,,0.00,VWS V14.00,2013-01-10 03:17:00,
2013-01-09 22:22:00,46.6,44.7,29.59,East,98,0.0,0.0,93,0.00,,,0.00,VWS V14.00,2013-01-10 03:22:00,
2013-01-09 22:27:00,46.6,45.0,29.59,East,98,0.0,0.0,94,0.00,,,0.00,VWS V14.00,2013-01-10 03:27:00,
2013-01-09 22:32:00,46.4,44.5,29.59,East,98,0.0,0.0,93,0.00,,,0.00,VWS V14.00,2013-01-10 03:32:00,
2013-01-09 22:37:00,46.2,44.6,29.59,East,98,0.0,0.0,94,0.00,,,0.00,VWS V14.00,2013-01-10 03:37:00,
2013-01-09 22:42:00,46.2,44.6,29.59,East,98,0.0,0.0,94,0.00,,,0.00,VWS V14.00,2013-01-10 03:42:00,
2013-01-09 22:47:00,46.2,44.6,29.59,East,98,0.0,0.0,94,0.00,,,0.00,VWS V14.00,2013-01-10 03:47:00,
2013-01-09 22:52:00,46.2,44.6,29.59,East,98,0.0,0.0,94,0.00,,,0.00,VWS V14.00,2013-01-10 03:52:00,
2013-01-09 22:57:00,46.0,44.4,29.59,East,98,0.0,0.0,94,0.00,,,0.00,VWS V14.00,2013-01-10 03:57:00,
2013-01-09 23:02:00,45.9,44.5,29.59,East,98,0.0,0.0,95,0.00,,,0.00,VWS V14.00,2013-01-10 04:02:00,
2013-01-09 23:08:00,46.0,44.7,29.59,East,98,0.0,0.0,95,0.00,,,0.00,VWS V14.00,2013-01-10 04:08:00,
2013-01-09 23:13:00,45.9,44.5,29.59,East,98,0.0,0.0,95,0.00,,,0.00,VWS V14.00,2013-01-10 04:13:00,
2013-01-09 23:18:00,45.9,44.5,29.59,East,98,0.0,0.0,95,0.00,,,0.00,VWS V14.00,2013-01-10 04:18:00,
2013-01-09 23:23:00,45.9,44.8,29.59,East,98,0.0,0.0,96,0.00,,,0.00,VWS V14.00,2013-01-10 04:23:00,
2013-01-09 23:28:00,45.5,44.2,29.62,East,98,0.0,0.0,95,0.00,,,0.00,VWS V14.00,2013-01-10 04:28:00,
2013-01-09 23:33:00,45.5,44.2,29.62,East,98,0.0,0.0,95,0.00,,,0.00,VWS V14.00,2013-01-10 04:33:00,
2013-01-09 23:38:00,45.5,44.2,29.62,East,98,0.0,0.0,95,0.00,,,0.00,VWS V14.00,2013-01-10 04:38:00,
2013-01-09 23:43:00,45.7,44.3,29.62,East,98,0.0,0.0,95,0.00,,,0.00,VWS V14.00,2013-01-10 04:43:00,
2013-01-09 23:48:00,45.9,44.5,29.62,East,98,0.0,0.0,95,0.00,,,0.00,VWS V14.00,2013-01-10 04:48:00,
2013-01-09 23:53:00,45.9,44.5,29.62,East,98,0.0,0.0,95,0.00,,,0.00,VWS V14.00,2013-01-10 04:53:00,
2013-01-09 23:58:00,45.9,44.5,29.59,East,98,0.0,0.0,95,0.00,,,0.00,VWS V14.00,2013-01-10 04:58:00,